Airfield :
LOGIN :

Register | Disclaimer

   EN    FR    IT 

 










Legend :    VFR   Marginal VFR   IFR   Intensive IFR   Very Intensive IFR
Visi :
Ceiling :
>= 8 km
>= 3000ft
5 to 8 km
1000 to 3000 ft
1500m to 5 km
500 to 1000 ft
800 to 1500m
200 to 500 ft
< 800m
< 200 ft
Symbols :   Thunderstorms  Fog  Heavy snow  Heavy precipitations  Wind > 20 kt
SIGMETs :     Misc.  Thunderstorms  Icing  Turbulence  Mountain Waves  Volcanic Ashes







- Airport Elevation : 357 ft
- IATA code : TUF
- Download approach charts


LFOT - Tours

CURRENT METAR :
  • 222000Z AUTO 28005KT 9999 ///CB 20/12 Q1015 TEMPO 22012G22KT SHRA

EXPIRED METARs :
  • 221930Z AUTO 27007KT 9999 ///CB 20/12 Q1015 TEMPO SHRA
  • 221900Z AUTO 26005KT 9999 ///CB 21/13 Q1014 TEMPO 4000 TSRA
  • 221830Z AUTO 24007KT 9999 ///TCU 22/13 Q1014 TEMPO 4000 TSRA SCT045CB
  • 221800Z AUTO 23008KT 200V270 CAVOK 23/12 Q1013 TEMPO 4000 TSRA SCT045CB
  • 221730Z AUTO 23010KT 200V270 CAVOK 23/11 Q1013 TEMPO 4000 TSRA SCT045CB

TAF TAF LFOT
Valid from the 22 at 18:00 until the 23 at 18:00 UTC


221700Z 2218/2318 24008KT 9999 FEW060TCU
TEMPO 2218/2222 22012G22KT SHRA BKN060TCU
PROB40
TEMPO 2218/2220 4000 TSRA SCT045CB
BECMG 2223/2301 SCT030
TEMPO 2301/2308 BKN020
No reported NOTAMs for that airfield.
1 SIGMET reported for the Paris FIR (LFFF) :
 
Embedded thunderstorms
LFFF SIGMET 4 VALID 221900/222100 LFPW
LFFF PARIS FIR/UIR EMBD TS FCST WI N5015 E00300 - N4915 E00315 - N4845 E00215 - N5000 E00145 - N5015 E00300 TOP FL320 MOV NE 20KT NC=



MET'MAP, your aeronautical weather chart ! - Copyright ORBIFLY December 2007 - Disclaimer

ORBIFLY MET'MAP TEAM :

Programming & Development : Alexandra Zaïnal
Concept & Development : Baudouin d'Aumeries
Co-Development & Prog : Marc-Olivier Méhu
Technical & hardware support : Manuel Goepfert

Contact : metmap@orbifly.com




SOURCES & CREDITS :

   NOAA